Time;durP1;ratioP1;P1;durP2;ratioP2;P2;SDS_P1;SDS_P2;PMS_P1;PMS_P2;Temp;Humidity;BMP_temperature;BMP_pressure;BME280_temperature;BME280_humidity;BME280_pressure;Samples;Min_cycle;Max_cycle;Signal;HPM_P1;HPM_P2
2022/01/09 00:00:30;;;;;;;4.70;4.30;;;1.90;99.90;;;;;;4985821;28;20278;-84
2022/01/09 00:02:56;;;;;;;4.57;4.17;;;1.90;99.90;;;;;;5002445;28;20601;-84
2022/01/09 00:05:22;;;;;;;5.37;4.87;;;1.90;99.90;;;;;;5003477;28;20216;-84
2022/01/09 00:07:49;;;;;;;5.40;4.90;;;1.80;99.90;;;;;;4987200;28;20342;-83
2022/01/09 00:10:16;;;;;;;6.07;5.47;;;1.80;99.90;;;;;;4986615;28;20187;-83
2022/01/09 00:12:42;;;;;;;5.30;4.83;;;1.80;99.90;;;;;;4988168;28;20595;-84
2022/01/09 00:15:09;;;;;;;5.17;4.77;;;1.80;99.90;;;;;;4996048;28;20221;-83
2022/01/09 00:17:35;;;;;;;5.17;4.67;;;1.80;99.90;;;;;;5004129;28;20185;-81
2022/01/09 00:20:01;;;;;;;5.80;5.30;;;1.80;99.90;;;;;;4986783;28;20546;-80
2022/01/09 00:22:39;;;;;;;6.27;5.67;;;1.70;99.90;;;;;;5004308;28;20191;-82
2022/01/09 00:25:06;;;;;;;5.60;5.10;;;1.70;99.90;;;;;;4978405;28;20216;-82
2022/01/09 00:27:31;;;;;;;5.57;5.07;;;1.70;99.90;;;;;;4984949;28;20258;-81
2022/01/09 00:29:57;;;;;;;6.00;5.50;;;1.90;99.90;;;;;;4966830;28;20202;-82
2022/01/09 00:32:23;;;;;;;6.27;5.77;;;1.80;99.90;;;;;;4992177;28;20172;-82
2022/01/09 00:34:49;;;;;;;5.63;5.13;;;1.70;99.90;;;;;;4996503;28;20223;-82
2022/01/09 00:37:15;;;;;;;5.83;5.33;;;1.80;99.90;;;;;;4983503;28;20239;-82
2022/01/09 00:39:41;;;;;;;5.90;5.37;;;1.80;99.90;;;;;;4991429;28;20215;-82
2022/01/09 00:42:06;;;;;;;5.53;5.03;;;1.80;99.90;;;;;;4987614;28;20172;-82
2022/01/09 00:44:32;;;;;;;5.07;4.67;;;1.70;99.90;;;;;;4987185;28;20580;-82
2022/01/09 00:47:00;;;;;;;5.07;4.67;;;1.80;99.90;;;;;;4992384;28;20203;-82
2022/01/09 00:49:26;;;;;;;4.90;4.60;;;1.80;99.90;;;;;;4987354;28;20176;-82
2022/01/09 00:51:52;;;;;;;4.87;4.47;;;1.80;99.90;;;;;;4972579;28;20551;-81
2022/01/09 00:54:18;;;;;;;4.57;4.17;;;1.80;99.90;;;;;;4983571;28;20200;-81
2022/01/09 00:56:44;;;;;;;5.00;4.50;;;1.80;99.90;;;;;;4964298;28;20188;-81
2022/01/09 00:59:12;;;;;;;4.67;4.27;;;1.80;99.90;;;;;;4976457;28;20194;-81
2022/01/09 01:01:38;;;;;;;5.07;4.67;;;1.70;99.90;;;;;;4971185;28;20618;-81
2022/01/09 01:04:04;;;;;;;4.70;4.30;;;1.80;99.90;;;;;;4972307;28;20227;-83
2022/01/09 01:06:30;;;;;;;5.80;5.30;;;1.70;99.90;;;;;;4988496;28;20199;-82
2022/01/09 01:08:56;;;;;;;5.40;5.00;;;1.70;99.90;;;;;;4993572;28;20180;-82
2022/01/09 01:11:22;;;;;;;5.00;4.60;;;1.80;99.90;;;;;;4996251;28;20274;-82
2022/01/09 01:13:48;;;;;;;5.53;5.13;;;1.70;99.90;;;;;;4991524;28;20676;-82
2022/01/09 01:16:14;;;;;;;5.73;5.30;;;1.80;99.90;;;;;;4980203;28;20173;-83
2022/01/09 01:18:43;;;;;;;5.77;5.30;;;2.00;99.90;;;;;;4981577;28;20185;-83
2022/01/09 01:21:09;;;;;;;5.57;5.10;;;1.80;99.90;;;;;;4994019;28;20223;-83
2022/01/09 01:23:34;;;;;;;5.70;5.13;;;1.80;99.90;;;;;;4998731;28;20579;-83
2022/01/09 01:26:02;;;;;;;5.30;4.90;;;1.80;99.90;;;;;;4998273;28;20234;-83
2022/01/09 01:28:29;;;;;;;5.30;4.90;;;1.70;99.90;;;;;;4989639;28;20176;-82
2022/01/09 01:30:54;;;;;;;5.30;4.90;;;1.70;99.90;;;;;;4997963;28;20234;-82
2022/01/09 01:33:20;;;;;;;4.73;4.13;;;1.80;99.90;;;;;;5000238;28;20261;-83
2022/01/09 01:35:46;;;;;;;4.40;4.10;;;1.80;99.90;;;;;;4999967;28;20175;-83
2022/01/09 01:38:11;;;;;;;3.57;3.27;;;1.90;99.90;;;;;;4999724;28;20179;-83
2022/01/09 01:40:37;;;;;;;3.97;3.67;;;2.00;99.90;;;;;;5000112;28;20553;-83
2022/01/09 01:43:03;;;;;;;3.33;3.13;;;2.30;99.90;;;;;;4998770;28;20194;-83
2022/01/09 01:45:29;;;;;;;3.43;3.20;;;2.00;99.90;;;;;;4979559;28;20291;-83
2022/01/09 01:47:54;;;;;;;3.20;2.90;;;2.00;99.90;;;;;;4993372;28;20190;-83
2022/01/09 01:50:20;;;;;;;2.57;2.37;;;2.00;99.90;;;;;;4991543;28;20179;-83
2022/01/09 01:52:51;;;;;;;2.67;2.47;;;2.10;99.90;;;;;;4994727;28;20188;-82
2022/01/09 01:55:17;;;;;;;2.30;2.10;;;2.10;99.90;;;;;;5011497;28;20190;-83
2022/01/09 01:57:44;;;;;;;1.90;1.80;;;2.10;99.90;;;;;;5000085;28;20190;-83
2022/01/09 02:00:13;;;;;;;2.60;1.97;;;2.20;99.90;;;;;;4998936;28;20179;-83
2022/01/09 02:02:38;;;;;;;1.50;1.40;;;2.20;99.90;;;;;;4998287;28;20253;-83
2022/01/09 02:05:05;;;;;;;1.70;1.40;;;2.30;99.90;;;;;;4998741;28;20216;-83
2022/01/09 02:07:32;;;;;;;1.83;1.50;;;2.40;99.90;;;;;;4981590;28;20175;-83
2022/01/09 02:09:58;;;;;;;1.20;1.00;;;2.50;99.90;;;;;;4998439;28;20265;-84
2022/01/09 02:12:23;;;;;;;0.93;0.90;;;2.50;99.90;;;;;;4998411;28;20676;-83
2022/01/09 02:14:49;;;;;;;0.80;0.80;;;2.60;99.90;;;;;;4973906;28;20219;-82
2022/01/09 02:17:19;;;;;;;0.70;0.70;;;2.60;99.90;;;;;;4997311;28;20210;-83
2022/01/09 02:19:50;;;;;;;0.90;0.60;;;2.60;99.90;;;;;;4979700;28;20194;-83
2022/01/09 02:22:15;;;;;;;0.70;0.60;;;2.70;99.90;;;;;;5000210;28;20629;-83
2022/01/09 02:24:43;;;;;;;0.57;0.50;;;2.90;99.90;;;;;;5000027;28;20204;-83
2022/01/09 02:27:08;;;;;;;0.97;0.40;;;2.80;99.90;;;;;;5000346;28;20238;-82
2022/01/09 02:29:34;;;;;;;0.20;0.20;;;3.40;99.90;;;;;;4972987;28;20177;-83
2022/01/09 02:31:59;;;;;;;0.47;0.20;;;3.00;99.90;;;;;;4996080;28;20183;-82
2022/01/09 02:34:25;;;;;;;0.20;0.20;;;3.00;99.90;;;;;;4990170;28;20201;-83
2022/01/09 02:36:51;;;;;;;0.63;0.30;;;3.70;99.90;;;;;;4962039;28;20190;-83
2022/01/09 02:39:16;;;;;;;0.20;0.20;;;3.60;99.90;;;;;;4981445;28;20176;-82
2022/01/09 02:41:42;;;;;;;0.23;0.23;;;3.00;99.90;;;;;;5000538;28;20184;-83
2022/01/09 02:44:09;;;;;;;0.20;0.20;;;3.00;99.90;;;;;;4991935;28;20205;-83
2022/01/09 02:49:19;;;;;;;0.20;0.20;;;3.00;99.90;;;;;;5000994;28;20894;-83
2022/01/09 02:51:46;;;;;;;0.43;0.10;;;3.40;99.90;;;;;;4983627;28;20172;-83
2022/01/09 02:56:57;;;;;;;0.30;0.17;;;3.10;99.90;;;;;;5001332;28;20194;-83
2022/01/09 02:59:22;;;;;;;0.47;0.20;;;3.10;99.90;;;;;;4983867;28;20185;-83
2022/01/09 03:01:48;;;;;;;0.20;0.20;;;3.10;99.90;;;;;;4995546;28;20176;-83
2022/01/09 03:04:14;;;;;;;0.20;0.20;;;3.10;99.90;;;;;;4992755;28;20248;-84
2022/01/09 03:06:40;;;;;;;0.30;0.30;;;3.10;99.90;;;;;;4988352;28;20210;-83
2022/01/09 03:09:07;;;;;;;0.20;0.20;;;3.00;99.90;;;;;;4995351;28;20260;-85
2022/01/09 03:11:33;;;;;;;0.23;0.23;;;3.00;99.90;;;;;;4998144;28;20199;-85
2022/01/09 03:13:59;;;;;;;0.30;0.30;;;3.00;99.90;;;;;;5003097;28;20734;-83
2022/01/09 03:16:25;;;;;;;0.10;0.10;;;3.10;99.90;;;;;;4996794;28;20189;-81
2022/01/09 03:18:50;;;;;;;0.53;0.20;;;3.10;99.90;;;;;;5001269;28;20233;-82
2022/01/09 03:21:16;;;;;;;0.10;0.10;;;3.10;99.90;;;;;;5001824;28;20710;-82
2022/01/09 03:23:42;;;;;;;0.20;0.20;;;3.10;99.90;;;;;;5001313;28;20201;-82
2022/01/09 03:26:09;;;;;;;0.33;0.23;;;3.80;99.90;;;;;;5002666;28;20200;-85
2022/01/09 03:28:36;;;;;;;0.50;0.20;;;3.20;99.90;;;;;;5004545;28;20272;-83
2022/01/09 03:31:02;;;;;;;0.10;0.10;;;2.80;99.90;;;;;;4992460;28;20173;-83
2022/01/09 03:33:28;;;;;;;0.10;0.10;;;3.20;99.90;;;;;;4997814;28;20212;-83
2022/01/09 03:35:53;;;;;;;0.20;0.20;;;2.60;99.90;;;;;;5006941;28;20254;-83
2022/01/09 03:38:19;;;;;;;0.20;0.20;;;3.20;99.90;;;;;;5006197;28;20190;-83
2022/01/09 03:40:48;;;;;;;0.40;0.30;;;3.20;99.90;;;;;;4993355;28;20187;-86
2022/01/09 03:43:14;;;;;;;0.27;0.10;;;3.20;99.90;;;;;;4989806;28;20203;-83
2022/01/09 03:45:40;;;;;;;0.10;0.10;;;2.70;99.90;;;;;;4984895;28;20208;-83
2022/01/09 03:48:06;;;;;;;0.20;0.20;;;3.20;99.90;;;;;;4989646;28;20207;-83
2022/01/09 03:50:35;;;;;;;1.07;0.10;;;3.20;99.90;;;;;;4985470;28;20247;-82
2022/01/09 03:53:03;;;;;;;0.10;0.10;;;3.20;99.90;;;;;;4987779;28;20184;-83
2022/01/09 03:55:31;;;;;;;0.10;0.10;;;3.10;99.90;;;;;;4987235;28;20193;-83
2022/01/09 03:57:57;;;;;;;0.10;0.10;;;2.00;99.90;;;;;;4990692;28;20192;-82
2022/01/09 04:00:25;;;;;;;0.20;0.20;;;4.20;99.90;;;;;;4988593;28;20189;-83
2022/01/09 04:02:54;;;;;;;0.20;0.20;;;3.00;99.90;;;;;;4988617;28;20722;-84
2022/01/09 04:05:20;;;;;;;0.30;0.20;;;3.40;99.90;;;;;;5007523;28;20218;-84
2022/01/09 04:07:48;;;;;;;0.10;0.10;;;4.00;99.90;;;;;;5008812;28;20641;-84
2022/01/09 04:10:14;;;;;;;0.20;0.20;;;2.90;99.90;;;;;;5008584;28;20719;-84
2022/01/09 04:12:52;;;;;;;0.53;0.20;;;3.00;99.90;;;;;;4987604;28;20194;-84
2022/01/09 04:15:18;;;;;;;0.10;0.10;;;3.00;99.90;;;;;;4998361;28;20181;-84
2022/01/09 04:17:54;;;;;;;0.13;0.13;;;3.10;99.90;;;;;;4990237;28;20184;-83
2022/01/09 04:20:23;;;;;;;0.10;0.10;;;2.80;99.90;;;;;;4990914;28;20184;-83
2022/01/09 04:22:50;;;;;;;0.20;0.20;;;3.20;99.90;;;;;;5008890;28;21036;-84
2022/01/09 04:25:16;;;;;;;0.20;0.20;;;3.20;99.90;;;;;;4991137;28;20240;-83
2022/01/09 04:27:43;;;;;;;0.10;0.10;;;3.20;99.90;;;;;;5006594;28;20577;-84
2022/01/09 04:30:10;;;;;;;0.23;0.23;;;3.20;99.90;;;;;;4991202;28;20207;-84
2022/01/09 04:32:35;;;;;;;0.10;0.10;;;3.20;99.90;;;;;;4993897;28;20256;-83
2022/01/09 04:35:01;;;;;;;0.10;0.10;;;4.10;99.90;;;;;;5005758;28;20607;-83
2022/01/09 04:37:28;;;;;;;0.77;0.23;;;3.10;99.90;;;;;;5006160;28;20168;-84
2022/01/09 04:39:54;;;;;;;3.30;0.20;;;3.10;99.90;;;;;;4987356;28;20179;-83
2022/01/09 04:42:26;;;;;;;0.10;0.10;;;3.10;99.90;;;;;;4988529;28;20219;-84
2022/01/09 04:44:52;;;;;;;0.10;0.10;;;3.10;99.90;;;;;;4992045;28;20225;-83
2022/01/09 04:47:18;;;;;;;0.20;0.20;;;3.00;99.90;;;;;;4983988;28;20180;-84
2022/01/09 04:50:38;;;;;;;0.30;0.13;;;3.00;99.90;;;;;;5008754;28;20189;-83
2022/01/09 04:53:08;;;;;;;0.47;0.10;;;3.00;99.90;;;;;;5007625;28;20181;-83
2022/01/09 04:55:40;;;;;;;0.20;0.20;;;3.00;99.90;;;;;;5007131;28;20176;-84
2022/01/09 04:58:06;;;;;;;0.20;0.20;;;2.90;99.90;;;;;;5008288;28;20198;-84
2022/01/09 05:00:47;;;;;;;0.10;0.10;;;2.90;99.90;;;;;;5002432;28;20236;-83
2022/01/09 05:03:18;;;;;;;1.70;0.10;;;1.90;99.90;;;;;;4996012;28;20211;-84
2022/01/09 05:05:51;;;;;;;1.00;0.30;;;2.80;99.90;;;;;;5002783;28;20718;-84
2022/01/09 05:08:19;;;;;;;0.73;0.40;;;2.90;99.90;;;;;;5000633;28;20284;-84
2022/01/09 05:10:45;;;;;;;0.10;0.10;;;2.90;99.90;;;;;;5006396;28;20165;-81
2022/01/09 05:13:11;;;;;;;0.43;0.20;;;3.90;99.90;;;;;;4996615;28;20178;-85
2022/01/09 05:15:37;;;;;;;0.40;0.10;;;2.90;99.90;;;;;;4999160;28;20217;-84
2022/01/09 05:18:04;;;;;;;0.93;0.20;;;2.90;99.90;;;;;;5006952;28;20183;-83
2022/01/09 05:20:30;;;;;;;0.80;0.60;;;3.50;99.90;;;;;;5005039;28;20173;-84
2022/01/09 05:22:56;;;;;;;4.07;0.20;;;2.90;99.90;;;;;;5003227;28;20282;-81
2022/01/09 05:25:22;;;;;;;0.73;0.20;;;3.30;99.90;;;;;;5003323;28;20676;-82
2022/01/09 05:27:49;;;;;;;0.37;0.20;;;2.90;99.90;;;;;;5003633;28;20206;-84
2022/01/09 05:30:15;;;;;;;0.83;0.20;;;2.90;99.90;;;;;;5002244;28;20186;-82
2022/01/09 05:32:41;;;;;;;0.97;0.20;;;2.90;99.90;;;;;;4988967;28;20266;-82
2022/01/09 05:35:07;;;;;;;0.23;0.20;;;2.90;99.90;;;;;;4997521;28;20195;-82
2022/01/09 05:37:32;;;;;;;0.47;0.27;;;2.90;99.90;;;;;;5003058;28;20176;-81
2022/01/09 05:39:58;;;;;;;0.23;0.20;;;3.20;99.90;;;;;;5003026;28;20192;-82
2022/01/09 05:42:33;;;;;;;0.23;0.20;;;3.30;99.90;;;;;;5004629;28;20196;-84
2022/01/09 05:44:58;;;;;;;0.20;0.20;;;2.70;99.90;;;;;;4988421;28;20216;-85
2022/01/09 05:47:24;;;;;;;0.50;0.20;;;2.70;99.90;;;;;;4987282;28;20177;-82
2022/01/09 05:49:51;;;;;;;0.40;0.20;;;2.70;99.90;;;;;;4995337;28;20186;-82
2022/01/09 05:52:16;;;;;;;0.20;0.20;;;2.70;99.90;;;;;;4985323;28;20616;-83
2022/01/09 05:54:51;;;;;;;0.10;0.10;;;2.70;99.90;;;;;;5000262;28;20211;-82
2022/01/09 05:57:16;;;;;;;0.73;0.30;;;2.60;99.90;;;;;;4988088;28;20215;-82
2022/01/09 05:59:45;;;;;;;1.13;0.30;;;2.60;99.90;;;;;;4987644;28;20189;-84
2022/01/09 06:02:14;;;;;;;0.53;0.20;;;2.90;99.90;;;;;;4987327;28;20192;-85
2022/01/09 06:04:49;;;;;;;0.10;0.10;;;2.60;99.90;;;;;;4980340;28;20224;-85
2022/01/09 06:07:18;;;;;;;0.93;0.40;;;2.50;99.90;;;;;;4978620;28;20689;-84
2022/01/09 06:09:44;;;;;;;1.40;0.37;;;2.50;99.90;;;;;;4978627;28;20183;-82
2022/01/09 06:12:10;;;;;;;0.40;0.40;;;2.50;99.90;;;;;;4984694;28;20175;-82
2022/01/09 06:14:35;;;;;;;2.17;0.40;;;2.50;99.90;;;;;;4983281;28;20197;-82
2022/01/09 06:17:01;;;;;;;1.00;0.40;;;2.50;99.90;;;;;;4999807;28;20184;-82
2022/01/09 06:19:27;;;;;;;1.87;0.50;;;2.50;99.90;;;;;;5002776;28;20207;-82
2022/01/09 06:21:52;;;;;;;1.70;0.50;;;2.60;99.90;;;;;;5002601;28;20237;-83
2022/01/09 06:24:18;;;;;;;1.07;0.40;;;2.50;99.90;;;;;;4999639;28;20231;-82
2022/01/09 06:26:44;;;;;;;1.40;0.40;;;2.50;99.90;;;;;;4993045;28;20204;-82
2022/01/09 06:29:09;;;;;;;3.27;0.33;;;2.70;99.90;;;;;;5002278;28;20715;-82
2022/01/09 06:31:35;;;;;;;3.30;0.80;;;2.60;99.90;;;;;;5000302;28;20184;-82
2022/01/09 06:34:00;;;;;;;3.40;0.57;;;2.50;99.90;;;;;;5001753;28;20239;-82
2022/01/09 06:36:26;;;;;;;2.43;0.50;;;2.50;99.90;;;;;;5001894;28;20176;-82
2022/01/09 06:38:52;;;;;;;1.80;0.67;;;2.50;99.90;;;;;;5001199;28;20204;-82
2022/01/09 06:41:17;;;;;;;1.23;0.50;;;2.90;99.90;;;;;;5003258;28;20176;-83
2022/01/09 06:43:44;;;;;;;1.83;0.60;;;2.60;99.90;;;;;;4998022;28;20208;-84
2022/01/09 06:46:10;;;;;;;1.40;0.50;;;2.50;99.90;;;;;;4989894;28;20227;-83
2022/01/09 06:48:35;;;;;;;3.37;0.60;;;2.50;99.90;;;;;;5003616;28;20254;-84
2022/01/09 06:51:01;;;;;;;1.60;0.70;;;2.60;99.90;;;;;;5003737;28;20207;-81
2022/01/09 06:53:30;;;;;;;1.93;0.50;;;2.50;99.90;;;;;;5007030;28;20680;-85
2022/01/09 06:55:56;;;;;;;1.93;0.80;;;2.60;99.90;;;;;;4984403;28;20216;-84
2022/01/09 06:58:37;;;;;;;2.20;0.70;;;2.60;99.90;;;;;;4981236;28;20689;-83
2022/01/09 07:01:08;;;;;;;5.10;1.10;;;2.50;99.90;;;;;;4986706;28;20738;-85
2022/01/09 07:03:34;;;;;;;1.70;0.60;;;2.50;99.90;;;;;;4983432;28;20204;-83
2022/01/09 07:06:00;;;;;;;1.10;0.60;;;3.30;99.90;;;;;;4988421;28;20251;-83
2022/01/09 07:08:27;;;;;;;2.00;0.60;;;2.50;99.90;;;;;;4988149;28;20551;-82
2022/01/09 07:10:53;;;;;;;4.07;0.80;;;2.50;99.90;;;;;;4985604;28;20193;-84
2022/01/09 07:13:18;;;;;;;2.40;0.70;;;2.50;99.90;;;;;;4968697;28;20826;-83
2022/01/09 07:15:50;;;;;;;3.13;0.80;;;2.40;99.90;;;;;;4986785;28;20792;-84
2022/01/09 07:18:16;;;;;;;5.20;0.93;;;2.40;99.90;;;;;;4967080;28;20267;-84
2022/01/09 07:20:42;;;;;;;3.83;0.80;;;2.40;99.90;;;;;;4969064;28;20204;-84
2022/01/09 07:23:08;;;;;;;2.47;0.80;;;3.00;99.90;;;;;;4987720;28;20173;-85
2022/01/09 07:25:34;;;;;;;2.77;0.77;;;2.40;99.90;;;;;;4991696;28;20200;-84
2022/01/09 07:28:01;;;;;;;2.90;1.20;;;3.50;99.90;;;;;;4969653;28;20185;-84
2022/01/09 07:30:36;;;;;;;6.77;0.93;;;2.40;99.90;;;;;;4963775;28;20288;-82
2022/01/09 07:33:04;;;;;;;4.50;1.10;;;2.50;99.90;;;;;;4953359;28;20196;-84
2022/01/09 07:35:31;;;;;;;4.43;1.00;;;2.50;99.90;;;;;;4956507;28;20180;-84
2022/01/09 07:37:57;;;;;;;3.67;0.97;;;2.60;99.90;;;;;;4962576;28;20192;-83
2022/01/09 07:40:22;;;;;;;3.57;0.70;;;2.60;99.90;;;;;;4977507;28;20181;-84
2022/01/09 07:42:49;;;;;;;2.87;0.60;;;2.60;99.90;;;;;;4984019;28;20181;-82
2022/01/09 07:45:16;;;;;;;6.30;0.80;;;2.70;99.90;;;;;;4969586;28;20200;-83
2022/01/09 07:47:42;;;;;;;4.87;0.70;;;2.70;99.90;;;;;;4964598;28;20271;-84
2022/01/09 07:50:10;;;;;;;2.97;0.70;;;2.70;99.90;;;;;;4992843;28;20180;-83
2022/01/09 07:52:36;;;;;;;4.73;0.70;;;2.70;99.90;;;;;;4992385;28;20185;-84
2022/01/09 07:55:04;;;;;;;3.13;0.80;;;2.70;99.90;;;;;;4994366;28;20671;-84
2022/01/09 07:57:30;;;;;;;3.30;0.77;;;2.70;99.90;;;;;;4993159;28;20203;-83
2022/01/09 07:59:57;;;;;;;5.63;1.00;;;2.70;99.90;;;;;;4993554;28;20210;-84
2022/01/09 08:02:23;;;;;;;1.87;0.90;;;1.90;99.90;;;;;;5010749;28;20180;-83
2022/01/09 08:04:50;;;;;;;2.73;1.03;;;3.40;99.90;;;;;;5011286;28;20216;-83
2022/01/09 08:07:16;;;;;;;4.67;1.10;;;2.70;99.90;;;;;;5004259;28;20188;-83
2022/01/09 08:09:42;;;;;;;3.47;0.70;;;3.30;99.90;;;;;;4969440;28;20186;-83
2022/01/09 08:12:11;;;;;;;2.30;0.50;;;2.70;99.90;;;;;;5006708;28;20668;-83
2022/01/09 08:14:40;;;;;;;3.87;1.00;;;2.70;99.90;;;;;;4989678;28;20207;-85
2022/01/09 08:17:06;;;;;;;6.67;1.17;;;2.70;99.90;;;;;;4992366;28;20217;-83
2022/01/09 08:19:35;;;;;;;3.77;1.00;;;2.70;99.90;;;;;;5009024;28;20207;-83
2022/01/09 08:22:02;;;;;;;3.20;0.77;;;2.70;99.90;;;;;;4993417;28;20215;-83
2022/01/09 08:24:38;;;;;;;3.23;0.73;;;2.70;99.90;;;;;;4969316;28;20192;-83
2022/01/09 08:27:13;;;;;;;5.93;0.83;;;2.80;99.90;;;;;;4977676;28;20216;-84
2022/01/09 08:29:39;;;;;;;5.23;1.00;;;2.70;99.90;;;;;;4998556;28;20527;-84
2022/01/09 08:32:10;;;;;;;3.53;1.10;;;2.70;99.90;;;;;;4974135;28;20181;-84
2022/01/09 08:35:04;;;;;;;8.30;1.20;;;2.70;99.90;;;;;;5001780;28;20205;-84
2022/01/09 08:37:31;;;;;;;3.97;1.40;;;2.70;99.90;;;;;;5002246;28;20199;-83
2022/01/09 08:39:59;;;;;;;5.60;1.43;;;3.60;99.90;;;;;;4984730;28;20238;-84
2022/01/09 08:42:25;;;;;;;5.57;1.53;;;2.80;99.90;;;;;;4998330;28;20183;-81
2022/01/09 08:47:53;;;;;;;3.33;0.80;;;2.90;99.90;;;;;;4921702;29;20198;-83
2022/01/09 08:50:23;;;;;;;6.30;2.40;;;3.80;99.90;;;;;;4989791;28;20192;-83
2022/01/09 08:52:52;;;;;;;6.20;1.50;;;2.90;99.90;;;;;;4956165;28;20180;-83
2022/01/09 08:55:57;;;;;;;4.37;1.00;;;3.50;99.90;;;;;;4971664;28;20225;-83
2022/01/09 08:58:26;;;;;;;3.77;1.00;;;2.80;99.90;;;;;;4983664;28;20174;-83
2022/01/09 09:01:28;;;;;;;5.67;1.63;;;2.90;99.90;;;;;;5001068;28;20175;-82
2022/01/09 09:04:16;;;;;;;4.30;1.57;;;4.10;99.90;;;;;;4904814;29;20219;-85
2022/01/09 09:06:59;;;;;;;4.23;1.23;;;2.80;99.90;;;;;;4920446;29;20238;-85
2022/01/09 09:10:39;;;;;;;;;;;;;;;;;;;;;
2022/01/09 09:13:20;;;;;;;5.80;1.03;;;2.70;99.90;;;;;;4960743;28;20282;-82
2022/01/09 09:15:49;;;;;;;3.33;1.10;;;3.40;99.90;;;;;;4987996;28;20206;-82
2022/01/09 09:18:30;;;;;;;6.07;1.40;;;2.70;99.90;;;;;;5004087;28;20184;-83
2022/01/09 09:21:46;;;;;;;5.80;1.50;;;3.20;99.90;;;;;;4960348;29;20712;-84
2022/01/09 09:24:24;;;;;;;5.00;1.30;;;4.30;99.90;;;;;;4994147;22;20278;-82
2022/01/09 09:27:16;;;;;;;2.90;1.10;;;3.30;99.90;;;;;;4998247;28;20217;-83
2022/01/09 09:30:01;;;;;;;7.83;1.60;;;2.90;99.90;;;;;;5004868;28;20184;-84
2022/01/09 09:33:12;;;;;;;5.63;1.30;;;3.40;99.90;;;;;;5022028;28;20217;-82
2022/01/09 09:36:00;;;;;;;;;;;;;;;;;;;;;
2022/01/09 09:38:26;;;;;;;5.87;1.40;;;3.50;99.90;;;;;;4992012;28;20270;-82
2022/01/09 09:41:15;;;;;;;6.23;1.50;;;4.40;99.90;;;;;;4989396;28;20214;-85
2022/01/09 09:44:31;;;;;;;2.87;1.27;;;3.70;99.90;;;;;;4971063;28;20294;-81
2022/01/09 09:47:44;;;;;;;7.17;1.00;;;3.00;99.90;;;;;;4965317;28;20223;-81
2022/01/09 09:50:12;;;;;;;7.37;1.10;;;3.70;99.90;;;;;;4957203;28;20668;-83
2022/01/09 09:52:46;;;;;;;4.67;1.30;;;3.60;99.90;;;;;;4972094;28;20188;-84
2022/01/09 09:55:29;;;;;;;5.53;1.40;;;3.70;99.90;;;;;;4969396;28;20694;-80
2022/01/09 09:58:02;;;;;;;4.83;1.30;;;3.60;99.90;;;;;;4974018;28;20212;-82
2022/01/09 10:08:19;;;;;;;4.00;1.00;;;3.50;99.90;;;;;;4898377;28;20237;-81
2022/01/09 11:04:52;;;;;;;2.63;1.27;;;3.90;99.90;;;;;;4848037;29;20222;-82
2022/01/09 11:07:18;;;;;;;5.70;1.43;;;4.00;99.90;;;;;;4921299;28;20221;-81
2022/01/09 11:09:48;;;;;;;10.73;1.37;;;4.60;99.90;;;;;;4991262;28;20225;-80
2022/01/09 11:12:46;;;;;;;5.13;0.97;;;5.00;99.90;;;;;;4984842;28;20177;-82
2022/01/09 11:20:42;;;;;;;3.80;1.53;;;4.10;99.90;;;;;;4995622;28;20218;-82
2022/01/09 13:08:57;;;;;;;1.47;1.00;;;2.40;99.90;;;;;;4976643;28;20610;-82
2022/01/09 13:11:25;;;;;;;3.57;1.30;;;2.40;99.90;;;;;;4985545;28;20825;-83
2022/01/09 13:13:54;;;;;;;1.40;1.10;;;2.50;99.90;;;;;;4979956;28;20264;-80
2022/01/09 13:16:27;;;;;;;2.33;1.20;;;2.50;99.90;;;;;;4990492;28;20176;-83
2022/01/09 13:19:11;;;;;;;2.03;0.90;;;2.50;99.90;;;;;;4986079;28;20177;-81
2022/01/09 13:21:46;;;;;;;2.00;0.87;;;2.50;99.90;;;;;;4961253;28;20195;-81
2022/01/09 13:24:17;;;;;;;5.93;2.40;;;2.60;99.90;;;;;;4978681;28;20202;-79
2022/01/09 13:26:44;;;;;;;2.67;1.67;;;3.00;99.90;;;;;;4980047;28;20205;-82
2022/01/09 13:29:16;;;;;;;1.77;0.90;;;2.60;99.90;;;;;;4997215;28;20183;-81
2022/01/09 13:31:54;;;;;;;1.20;0.80;;;2.60;99.90;;;;;;4980104;28;20185;-81
2022/01/09 13:42:53;;;;;;;6.00;4.73;;;1.80;99.90;;;;;;5002531;28;20172;-81
2022/01/09 13:45:22;;;;;;;4.83;4.27;;;3.40;99.90;;;;;;4988896;28;20209;-82
2022/01/09 13:47:56;;;;;;;4.23;3.40;;;2.40;99.90;;;;;;4983912;28;20236;-81
2022/01/09 13:50:27;;;;;;;5.70;4.27;;;3.10;99.90;;;;;;4965562;28;20169;-80
2022/01/09 13:53:10;;;;;;;3.43;3.10;;;3.10;99.90;;;;;;4979868;28;20636;-81
2022/01/09 13:55:39;;;;;;;5.90;3.13;;;1.30;99.90;;;;;;4983735;28;20175;-81
2022/01/09 13:58:07;;;;;;;4.10;3.00;;;2.70;99.90;;;;;;4980001;28;20573;-81
2022/01/09 14:00:38;;;;;;;4.13;2.80;;;2.40;99.90;;;;;;4980198;28;20199;-82
2022/01/09 14:03:09;;;;;;;2.30;2.10;;;3.60;99.90;;;;;;4959642;28;20219;-82
2022/01/09 14:05:44;;;;;;;4.03;2.97;;;3.20;99.90;;;;;;4987135;28;20196;-81
2022/01/09 14:08:37;;;;;;;5.47;3.23;;;2.50;99.90;;;;;;4990069;28;20692;-81
2022/01/09 14:11:07;;;;;;;5.00;4.07;;;2.50;99.90;;;;;;4976869;28;20176;-81
2022/01/09 14:13:39;;;;;;;5.03;4.23;;;2.50;99.90;;;;;;4966825;28;20251;-80
2022/01/09 14:16:11;;;;;;;3.67;2.53;;;2.60;99.90;;;;;;4966804;28;20182;-82
2022/01/09 14:18:38;;;;;;;6.23;3.63;;;2.60;99.90;;;;;;4994965;28;20179;-79
2022/01/09 14:21:09;;;;;;;6.27;3.63;;;2.60;99.90;;;;;;4981404;28;20177;-80
2022/01/09 14:23:38;;;;;;;4.43;3.87;;;2.70;99.90;;;;;;4979006;28;20708;-81
2022/01/09 14:26:09;;;;;;;4.57;3.80;;;3.60;99.90;;;;;;4999123;28;20199;-81
2022/01/09 14:28:36;;;;;;;6.90;4.97;;;2.70;99.90;;;;;;4998725;28;20692;-82
2022/01/09 14:31:06;;;;;;;9.97;6.67;;;2.70;99.90;;;;;;4996562;28;20191;-81
2022/01/09 14:33:32;;;;;;;8.43;5.57;;;2.70;99.90;;;;;;4996321;28;20250;-81
2022/01/09 14:36:09;;;;;;;9.20;5.47;;;2.80;99.90;;;;;;4974656;28;20184;-81
2022/01/09 14:38:38;;;;;;;15.77;8.77;;;2.80;99.90;;;;;;4993923;28;20190;-81
2022/01/09 14:41:06;;;;;;;7.60;4.27;;;2.80;99.90;;;;;;4981435;28;20526;-81
2022/01/09 14:43:33;;;;;;;12.10;6.93;;;2.90;99.90;;;;;;4981025;28;20196;-80
2022/01/09 14:46:01;;;;;;;4.73;2.60;;;2.80;99.90;;;;;;4995396;28;20220;-79
2022/01/09 14:48:29;;;;;;;2.50;1.70;;;2.80;99.90;;;;;;4991115;28;20180;-81
2022/01/09 14:50:56;;;;;;;4.13;1.90;;;3.10;99.90;;;;;;4973015;28;20234;-81
2022/01/09 14:53:22;;;;;;;2.57;1.27;;;3.10;99.90;;;;;;4993558;28;20234;-81
2022/01/09 14:55:49;;;;;;;1.97;1.20;;;2.90;99.90;;;;;;4997548;28;20191;-81
2022/01/09 14:58:16;;;;;;;1.60;1.27;;;3.10;99.90;;;;;;4988158;28;20216;-81
2022/01/09 15:00:43;;;;;;;5.97;3.90;;;2.80;99.90;;;;;;4978563;28;20192;-80
2022/01/09 15:03:09;;;;;;;6.07;4.20;;;2.80;99.90;;;;;;4980812;28;20656;-82
2022/01/09 15:05:37;;;;;;;2.73;1.70;;;2.80;99.90;;;;;;4979949;28;20216;-81
2022/01/09 15:08:03;;;;;;;2.00;1.60;;;2.80;99.90;;;;;;4996751;28;20189;-80
2022/01/09 15:10:29;;;;;;;3.77;3.00;;;2.70;99.90;;;;;;4997335;28;20188;-81
2022/01/09 15:12:56;;;;;;;4.90;3.90;;;2.60;99.90;;;;;;5001097;28;20180;-81
2022/01/09 15:15:22;;;;;;;4.87;3.17;;;2.60;99.90;;;;;;4985146;28;20238;-81
2022/01/09 15:17:47;;;;;;;3.77;3.20;;;2.60;99.90;;;;;;4994240;28;20196;-80
2022/01/09 15:20:14;;;;;;;2.73;1.97;;;2.60;99.90;;;;;;4974465;28;20202;-81
2022/01/09 15:22:40;;;;;;;4.20;1.50;;;2.60;99.90;;;;;;4999250;28;20280;-81
2022/01/09 15:25:06;;;;;;;2.17;1.60;;;2.40;99.90;;;;;;4984590;28;20222;-81
2022/01/09 15:27:32;;;;;;;1.67;1.33;;;2.40;99.90;;;;;;4969049;28;20188;-80
2022/01/09 15:30:00;;;;;;;1.10;0.90;;;2.40;99.90;;;;;;4967615;28;20415;-81
2022/01/09 15:32:26;;;;;;;1.27;1.00;;;2.40;99.90;;;;;;4981795;28;20185;-81
2022/01/09 15:34:52;;;;;;;1.97;1.10;;;2.40;99.90;;;;;;4984910;28;20207;-80
2022/01/09 15:37:18;;;;;;;1.23;1.13;;;2.30;99.90;;;;;;4986214;28;20187;-81
2022/01/09 15:39:45;;;;;;;1.17;0.90;;;2.50;99.90;;;;;;4980050;28;20209;-81
2022/01/09 15:42:11;;;;;;;1.70;1.20;;;2.70;99.90;;;;;;4980348;28;20188;-81
2022/01/09 15:44:37;;;;;;;2.43;1.10;;;2.10;99.90;;;;;;4967391;28;20230;-81
2022/01/09 15:47:04;;;;;;;2.77;1.40;;;2.10;99.90;;;;;;4974473;28;20304;-80
2022/01/09 15:49:32;;;;;;;2.17;1.70;;;2.10;99.90;;;;;;4965038;28;20196;-81
2022/01/09 15:51:58;;;;;;;2.57;2.10;;;2.10;99.90;;;;;;4978555;28;20297;-80
2022/01/09 15:54:23;;;;;;;2.20;1.70;;;2.10;99.90;;;;;;4985732;28;20200;-79
2022/01/09 15:56:49;;;;;;;2.57;2.00;;;2.10;99.90;;;;;;4981297;28;21755;-80
2022/01/09 15:59:16;;;;;;;2.47;1.90;;;2.10;99.90;;;;;;4981100;28;20188;-80
2022/01/09 16:01:43;;;;;;;3.53;2.47;;;2.10;99.90;;;;;;4982479;28;20698;-82
2022/01/09 16:11:58;;;;;;;6.17;2.53;;;2.10;99.90;;;;;;4097140;23;20219;-81
2022/01/09 16:14:24;;;;;;;4.90;2.60;;;2.20;99.90;;;;;;4999950;28;20243;-81
2022/01/09 16:16:53;;;;;;;3.17;2.07;;;3.10;99.90;;;;;;5016740;28;20202;-80
2022/01/09 16:19:19;;;;;;;4.43;3.03;;;2.10;99.90;;;;;;5014776;28;20187;-81
2022/01/09 16:21:45;;;;;;;4.50;2.10;;;2.60;99.90;;;;;;4999872;28;20191;-80
2022/01/09 16:24:11;;;;;;;5.70;3.60;;;2.20;99.90;;;;;;5000542;28;20203;-81
2022/01/09 16:26:37;;;;;;;4.77;3.80;;;2.20;99.90;;;;;;5000984;28;20219;-81
2022/01/09 16:29:03;;;;;;;5.03;3.77;;;2.20;99.90;;;;;;5016798;28;20181;-81